McLean, Nebraska
Current Conditions -  °F | °C
As of 3:55 AM on Saturday 29 Nov 2014 (Local Time) from KLCG Reporting Station
Clear Clear  
Wind Chill:   Ceiling: Unl
Heat Index:   Visibility: 10mi
Dew Point: -3°   Wind: 13mph
Humidity: 64%   Direction: 230°SW
Pressure: 29.51"   Gusts: NA
Location:  42.39°N, 97.47°W
Report Text: KLCG 290955Z AUTO 23011KT 10SM CLR 04/M02 A2951 RMK AO2 T00381025
Loading
Personal Weather Stations






























Interactive Weather Map New forecast layout! Learn more

10-Day Weather Forecast

Advertisements
Track Severe Weather on mobile